Time;durP1;ratioP1;P1;durP2;ratioP2;P2;SDS_P1;SDS_P2;PMS_P1;PMS_P2;Temp;Humidity;BMP_temperature;BMP_pressure;BME280_temperature;BME280_humidity;BME280_pressure;Samples;Min_cycle;Max_cycle;Signal;HPM_P1;HPM_P2
2024/04/10 00:00:16;;;;;;;19.23;4.13;;;;;;;;;;5312750;27;20012;-53
2024/04/10 00:02:41;;;;;;;20.55;3.97;;;;;;;;;;5304951;27;19998;-55
2024/04/10 00:05:07;;;;;;;18.30;3.72;;;;;;;;;;5299301;27;20005;-55
2024/04/10 00:07:32;;;;;;;16.17;4.18;;;;;;;;;;5314163;27;20021;-55
2024/04/10 00:09:57;;;;;;;19.55;4.30;;;;;;;;;;5312112;27;19998;-55
2024/04/10 00:12:23;;;;;;;16.38;3.58;;;;;;;;;;5310240;27;19998;-56
2024/04/10 00:14:48;;;;;;;17.08;3.65;;;;;;;;;;5313439;27;19998;-54
2024/04/10 00:17:13;;;;;;;25.40;4.40;;;;;;;;;;5313647;27;20010;-55
2024/04/10 00:19:38;;;;;;;17.40;3.58;;;;;;;;;;5313561;27;19994;-55
2024/04/10 00:22:04;;;;;;;18.33;4.15;;;;;;;;;;5313767;27;20013;-55
2024/04/10 00:24:29;;;;;;;15.93;3.80;;;;;;;;;;5304654;27;20003;-56
2024/04/10 00:26:54;;;;;;;23.73;4.60;;;;;;;;;;5294131;27;20064;-55
2024/04/10 00:29:20;;;;;;;19.73;4.15;;;;;;;;;;5313824;27;19998;-53
2024/04/10 00:31:45;;;;;;;21.88;4.15;;;;;;;;;;5311670;27;19994;-55
2024/04/10 00:34:10;;;;;;;22.45;4.40;;;;;;;;;;5288315;27;20013;-53
2024/04/10 00:36:35;;;;;;;19.60;4.03;;;;;;;;;;5304493;26;20066;-54
2024/04/10 00:39:01;;;;;;;20.23;3.92;;;;;;;;;;5279534;27;19998;-55
2024/04/10 00:41:26;;;;;;;23.15;4.18;;;;;;;;;;5249574;27;20344;-56
2024/04/10 00:43:51;;;;;;;25.83;4.47;;;;;;;;;;5279448;27;19994;-55
2024/04/10 00:46:18;;;;;;;21.33;4.40;;;;;;;;;;5279173;27;20005;-56
2024/04/10 00:48:44;;;;;;;23.88;4.97;;;;;;;;;;5279465;27;20015;-55
2024/04/10 00:51:27;;;;;;;22.25;3.65;;;;;;;;;;5278978;27;20002;-55
2024/04/10 00:53:54;;;;;;;22.08;3.70;;;;;;;;;;5279324;27;20010;-55
2024/04/10 00:56:19;;;;;;;23.73;4.32;;;;;;;;;;5279253;27;19998;-55
2024/04/10 00:58:44;;;;;;;24.70;4.55;;;;;;;;;;5279026;27;20002;-55
2024/04/10 01:01:10;;;;;;;23.30;4.15;;;;;;;;;;5285279;27;20006;-53
2024/04/10 01:03:36;;;;;;;24.00;4.65;;;;;;;;;;5310410;27;19998;-55
2024/04/10 01:06:03;;;;;;;20.63;4.60;;;;;;;;;;5312791;27;20006;-55
2024/04/10 01:08:28;;;;;;;26.85;4.93;;;;;;;;;;5312741;27;20009;-54
2024/04/10 01:10:54;;;;;;;23.65;4.20;;;;;;;;;;5311969;27;20076;-55
2024/04/10 01:13:19;;;;;;;23.70;4.70;;;;;;;;;;5312909;27;19998;-56
2024/04/10 01:15:45;;;;;;;24.83;4.55;;;;;;;;;;5312830;27;19998;-54
2024/04/10 01:18:10;;;;;;;21.33;4.07;;;;;;;;;;5307789;27;20084;-53
2024/04/10 01:20:35;;;;;;;19.58;3.80;;;;;;;;;;5312968;27;20017;-56
2024/04/10 01:23:02;;;;;;;16.52;4.10;;;;;;;;;;5314382;27;20020;-52
2024/04/10 01:25:27;;;;;;;22.73;3.88;;;;;;;;;;5316177;27;20009;-56
2024/04/10 01:27:52;;;;;;;26.13;3.97;;;;;;;;;;5309515;27;20002;-54
2024/04/10 01:30:17;;;;;;;22.75;4.63;;;;;;;;;;5282217;27;20002;-56
2024/04/10 01:32:42;;;;;;;20.50;4.50;;;;;;;;;;5279876;27;20002;-55
2024/04/10 01:35:08;;;;;;;19.80;3.78;;;;;;;;;;5282021;27;20098;-52
2024/04/10 01:37:33;;;;;;;22.90;3.92;;;;;;;;;;5282999;27;20009;-54
2024/04/10 01:39:58;;;;;;;21.95;4.65;;;;;;;;;;5314583;27;19997;-55
2024/04/10 01:42:23;;;;;;;25.23;4.88;;;;;;;;;;5316220;27;19997;-56
2024/04/10 01:44:48;;;;;;;23.35;4.82;;;;;;;;;;5315952;27;20068;-55
2024/04/10 01:47:14;;;;;;;17.75;3.95;;;;;;;;;;5316421;27;20044;-52
2024/04/10 01:49:39;;;;;;;19.80;4.72;;;;;;;;;;5285495;27;20006;-54
2024/04/10 01:52:04;;;;;;;23.70;4.93;;;;;;;;;;5281778;27;19998;-53
2024/04/10 01:54:30;;;;;;;25.23;4.03;;;;;;;;;;5281520;27;20065;-56
2024/04/10 01:56:55;;;;;;;21.35;4.75;;;;;;;;;;5301842;27;20010;-53
2024/04/10 01:59:21;;;;;;;22.60;4.03;;;;;;;;;;5315787;27;20009;-56
2024/04/10 02:01:46;;;;;;;23.63;4.70;;;;;;;;;;5286032;27;20388;-57
2024/04/10 02:04:11;;;;;;;20.25;3.80;;;;;;;;;;5282119;27;20006;-56
2024/04/10 02:06:36;;;;;;;22.95;4.53;;;;;;;;;;5282091;27;19995;-56
2024/04/10 02:09:02;;;;;;;20.45;3.70;;;;;;;;;;5281782;27;20234;-55
2024/04/10 02:11:28;;;;;;;21.73;4.03;;;;;;;;;;5281631;27;20387;-56
2024/04/10 02:13:54;;;;;;;29.02;4.75;;;;;;;;;;5313697;27;20284;-53
2024/04/10 02:16:21;;;;;;;23.20;4.03;;;;;;;;;;5315611;27;20012;-54
2024/04/10 02:18:46;;;;;;;29.60;5.95;;;;;;;;;;5315554;27;20024;-54
2024/04/10 02:21:12;;;;;;;29.27;6.10;;;;;;;;;;5314248;27;20295;-54
2024/04/10 02:23:37;;;;;;;22.95;4.22;;;;;;;;;;5311687;27;20399;-56
2024/04/10 02:26:11;;;;;;;22.02;4.10;;;;;;;;;;5281109;27;20305;-56
2024/04/10 02:28:36;;;;;;;18.75;3.70;;;;;;;;;;5279549;27;20002;-56
2024/04/10 02:31:02;;;;;;;20.58;4.30;;;;;;;;;;5281154;27;20010;-56
2024/04/10 02:33:27;;;;;;;27.67;4.53;;;;;;;;;;5281077;27;20077;-56
2024/04/10 02:35:53;;;;;;;25.23;4.13;;;;;;;;;;5288377;27;20060;-56
2024/04/10 02:38:18;;;;;;;19.73;4.25;;;;;;;;;;5315297;27;19994;-56
2024/04/10 02:40:43;;;;;;;20.02;4.28;;;;;;;;;;5315009;27;20065;-56
2024/04/10 02:43:08;;;;;;;21.67;4.47;;;;;;;;;;5314007;27;20009;-55
2024/04/10 02:45:34;;;;;;;21.38;4.57;;;;;;;;;;5315323;27;20009;-54
2024/04/10 02:48:00;;;;;;;23.02;4.28;;;;;;;;;;5307319;27;20074;-55
2024/04/10 02:50:25;;;;;;;21.67;5.03;;;;;;;;;;5281429;27;20480;-56
2024/04/10 02:52:50;;;;;;;20.27;3.97;;;;;;;;;;5298448;27;20014;-53
2024/04/10 02:55:15;;;;;;;24.42;4.22;;;;;;;;;;5315364;26;20072;-56
2024/04/10 02:57:41;;;;;;;21.85;4.00;;;;;;;;;;5315542;27;19993;-56
2024/04/10 03:00:10;;;;;;;20.85;4.05;;;;;;;;;;5301376;27;20412;-56
2024/04/10 03:02:38;;;;;;;21.67;4.05;;;;;;;;;;5325349;21;20017;-87
2024/04/10 03:05:04;;;;;;;19.83;4.00;;;;;;;;;;5314611;27;20013;-87
2024/04/10 03:07:34;;;;;;;23.45;4.32;;;;;;;;;;5314407;27;20427;-87
2024/04/10 03:10:00;;;;;;;17.80;4.03;;;;;;;;;;5315652;27;20022;-87
2024/04/10 03:12:47;;;;;;;17.23;3.85;;;;;;;;;;5316499;26;20001;-87
2024/04/10 03:15:16;;;;;;;20.67;3.92;;;;;;;;;;5314443;27;20002;-87
2024/04/10 03:17:46;;;;;;;22.05;4.18;;;;;;;;;;5314292;27;20327;-87
2024/04/10 03:20:13;;;;;;;22.80;4.20;;;;;;;;;;5314488;27;20019;-87
2024/04/10 03:22:39;;;;;;;20.60;3.63;;;;;;;;;;5314328;27;20002;-87
2024/04/10 03:25:06;;;;;;;18.77;4.00;;;;;;;;;;5314614;27;19994;-87
2024/04/10 03:27:35;;;;;;;25.60;4.07;;;;;;;;;;5314917;27;20006;-87
2024/04/10 03:30:03;;;;;;;20.58;4.00;;;;;;;;;;5316370;26;20005;-86
2024/04/10 03:32:30;;;;;;;32.20;4.72;;;;;;;;;;5314921;27;20014;-87
2024/04/10 03:34:57;;;;;;;19.95;4.50;;;;;;;;;;5316511;26;20295;-87
2024/04/10 03:37:23;;;;;;;18.48;4.20;;;;;;;;;;5314281;27;20002;-86
2024/04/10 03:39:51;;;;;;;23.65;4.60;;;;;;;;;;5316950;26;20001;-87
2024/04/10 03:42:22;;;;;;;24.02;4.35;;;;;;;;;;5323949;27;19990;-86
2024/04/10 03:44:49;;;;;;;22.27;4.18;;;;;;;;;;5314863;27;20410;-87
2024/04/10 03:47:17;;;;;;;25.42;4.20;;;;;;;;;;5313097;27;19998;-87
2024/04/10 03:49:44;;;;;;;21.90;4.35;;;;;;;;;;5314865;27;19994;-87
2024/04/10 03:52:12;;;;;;;25.38;4.30;;;;;;;;;;5317139;26;20001;-87
2024/04/10 03:54:38;;;;;;;21.35;4.70;;;;;;;;;;5314087;27;19998;-87
2024/04/10 03:57:04;;;;;;;27.60;4.03;;;;;;;;;;5315101;27;20008;-87
2024/04/10 03:59:40;;;;;;;25.85;4.82;;;;;;;;;;5315123;27;19997;-87
2024/04/10 04:02:05;;;;;;;21.17;4.22;;;;;;;;;;5350359;21;20017;-55
2024/04/10 04:04:30;;;;;;;23.70;4.55;;;;;;;;;;5349746;26;20066;-52
2024/04/10 04:08:27;;;;;;;21.77;4.43;;;;;;;;;;5474486;25;20362;-55
2024/04/10 04:10:54;;;;;;;21.00;4.30;;;;;;;;;;5438869;26;20051;-55
2024/04/10 04:13:19;;;;;;;25.45;4.65;;;;;;;;;;5435951;26;20069;-56
2024/04/10 04:15:45;;;;;;;25.33;4.13;;;;;;;;;;5438676;26;19995;-52
2024/04/10 04:18:10;;;;;;;26.77;4.90;;;;;;;;;;5438679;26;20003;-54
2024/04/10 04:20:36;;;;;;;23.98;3.92;;;;;;;;;;5438374;26;19991;-57
2024/04/10 04:23:01;;;;;;;20.05;3.97;;;;;;;;;;5436116;26;20350;-56
2024/04/10 04:25:26;;;;;;;25.25;5.88;;;;;;;;;;5417572;26;20011;-57
2024/04/10 04:27:51;;;;;;;17.58;4.63;;;;;;;;;;5402745;26;19988;-56
2024/04/10 04:30:17;;;;;;;21.05;4.30;;;;;;;;;;5402827;26;19992;-54
2024/04/10 04:32:43;;;;;;;23.85;4.78;;;;;;;;;;5402833;26;19988;-54
2024/04/10 04:35:08;;;;;;;20.63;4.50;;;;;;;;;;5402410;26;20042;-56
2024/04/10 04:37:33;;;;;;;20.25;4.07;;;;;;;;;;5426707;26;20007;-55
2024/04/10 04:39:59;;;;;;;15.90;3.60;;;;;;;;;;5408478;26;19992;-55
2024/04/10 04:42:24;;;;;;;18.30;3.60;;;;;;;;;;5402693;26;19992;-57
2024/04/10 04:44:50;;;;;;;20.98;4.05;;;;;;;;;;5402569;26;19988;-52
2024/04/10 04:47:15;;;;;;;21.67;4.05;;;;;;;;;;5402541;26;20008;-56
2024/04/10 04:49:40;;;;;;;22.33;4.03;;;;;;;;;;5402120;26;20000;-54
2024/04/10 04:52:06;;;;;;;26.27;4.07;;;;;;;;;;5402803;26;20066;-54
2024/04/10 04:54:31;;;;;;;20.92;4.13;;;;;;;;;;5402369;26;20065;-56
2024/04/10 04:56:56;;;;;;;30.05;4.65;;;;;;;;;;5402686;26;19995;-56
2024/04/10 04:59:22;;;;;;;18.15;4.25;;;;;;;;;;5402744;26;20070;-56
2024/04/10 05:01:47;;;;;;;23.30;4.65;;;;;;;;;;5403125;26;20011;-56
2024/04/10 05:06:56;;;;;;;18.17;4.32;;;;;;;;;;5414823;26;20312;-54
2024/04/10 05:09:22;;;;;;;19.95;4.45;;;;;;;;;;5437799;26;19995;-57
2024/04/10 05:11:47;;;;;;;18.52;4.03;;;;;;;;;;5407891;26;19999;-52
2024/04/10 05:14:12;;;;;;;20.08;3.97;;;;;;;;;;5402059;26;20368;-55
2024/04/10 05:16:37;;;;;;;20.73;4.38;;;;;;;;;;5402119;26;19992;-55
2024/04/10 05:19:04;;;;;;;24.33;4.20;;;;;;;;;;5392754;26;20080;-56
2024/04/10 05:21:30;;;;;;;19.48;4.10;;;;;;;;;;5387005;26;20036;-57
2024/04/10 05:23:55;;;;;;;17.15;4.35;;;;;;;;;;5386769;26;20282;-54
2024/04/10 05:26:22;;;;;;;24.73;4.88;;;;;;;;;;5386554;26;20058;-56
2024/04/10 05:28:47;;;;;;;20.10;3.95;;;;;;;;;;5397557;26;20017;-53
2024/04/10 05:31:12;;;;;;;19.45;4.45;;;;;;;;;;5391934;26;20424;-57
2024/04/10 05:33:38;;;;;;;17.23;3.65;;;;;;;;;;5385011;26;20004;-56
2024/04/10 05:36:06;;;;;;;21.38;4.50;;;;;;;;;;5386508;26;20398;-55
2024/04/10 05:38:32;;;;;;;18.20;4.07;;;;;;;;;;5388755;26;20003;-54
2024/04/10 05:40:57;;;;;;;21.45;4.15;;;;;;;;;;5404926;26;20435;-56
2024/04/10 05:43:23;;;;;;;18.33;3.97;;;;;;;;;;5386686;26;20286;-55
2024/04/10 05:45:51;;;;;;;16.55;3.83;;;;;;;;;;5386485;26;20281;-54
2024/04/10 05:48:17;;;;;;;19.60;4.13;;;;;;;;;;5386395;26;20413;-55
2024/04/10 05:50:42;;;;;;;25.58;5.55;;;;;;;;;;5385247;26;20022;-56
2024/04/10 05:53:07;;;;;;;22.02;4.45;;;;;;;;;;5386550;26;20003;-56
2024/04/10 05:55:33;;;;;;;18.20;4.45;;;;;;;;;;5386812;26;20075;-54
2024/04/10 05:57:59;;;;;;;19.58;3.85;;;;;;;;;;5384289;26;20279;-57
2024/04/10 06:00:24;;;;;;;18.92;4.40;;;;;;;;;;5384983;26;20070;-56
2024/04/10 06:02:50;;;;;;;21.00;4.00;;;;;;;;;;5396372;26;20487;-56
2024/04/10 06:05:15;;;;;;;24.42;5.07;;;;;;;;;;5421717;26;19995;-56
2024/04/10 06:07:42;;;;;;;22.45;4.57;;;;;;;;;;5405289;26;20431;-53
2024/04/10 06:10:07;;;;;;;22.10;4.55;;;;;;;;;;5385930;26;19996;-53
2024/04/10 06:12:32;;;;;;;17.92;4.50;;;;;;;;;;5385973;26;20007;-53
2024/04/10 06:14:58;;;;;;;21.88;4.75;;;;;;;;;;5396276;26;19995;-56
2024/04/10 06:17:25;;;;;;;21.70;4.65;;;;;;;;;;5421779;26;20065;-56
2024/04/10 06:19:50;;;;;;;18.58;4.60;;;;;;;;;;5421710;26;20344;-56
2024/04/10 06:22:17;;;;;;;18.33;4.28;;;;;;;;;;5421630;26;19996;-56
2024/04/10 06:24:44;;;;;;;22.60;4.97;;;;;;;;;;5420030;26;20010;-56
2024/04/10 06:27:11;;;;;;;21.30;4.80;;;;;;;;;;5411030;26;20012;-56
2024/04/10 06:29:43;;;;;;;14.95;4.40;;;;;;;;;;5385901;26;20007;-57
2024/04/10 06:32:08;;;;;;;21.45;4.57;;;;;;;;;;5384125;26;20352;-57
2024/04/10 06:34:33;;;;;;;18.00;4.10;;;;;;;;;;5385692;26;20062;-58
2024/04/10 06:36:58;;;;;;;17.38;4.53;;;;;;;;;;5421325;26;19995;-57
2024/04/10 06:39:23;;;;;;;19.77;3.55;;;;;;;;;;5421682;26;19991;-58
2024/04/10 06:41:49;;;;;;;23.23;5.70;;;;;;;;;;5421551;26;19991;-58
2024/04/10 06:44:14;;;;;;;19.17;4.40;;;;;;;;;;5402798;26;20001;-58
2024/04/10 06:46:39;;;;;;;18.45;4.22;;;;;;;;;;5387881;26;20004;-57
2024/04/10 06:49:05;;;;;;;18.50;3.88;;;;;;;;;;5405618;26;19996;-57
2024/04/10 06:51:30;;;;;;;18.00;4.55;;;;;;;;;;5385851;26;20007;-55
2024/04/10 06:53:55;;;;;;;16.05;3.80;;;;;;;;;;5398147;26;20006;-58
2024/04/10 06:56:20;;;;;;;20.45;4.38;;;;;;;;;;5395582;26;20010;-59
2024/04/10 06:58:46;;;;;;;21.17;4.65;;;;;;;;;;5385138;26;20352;-57
2024/04/10 07:01:11;;;;;;;19.35;4.97;;;;;;;;;;5383737;26;20405;-59
2024/04/10 07:03:39;;;;;;;21.10;4.97;;;;;;;;;;5385522;26;20004;-59
2024/04/10 07:06:05;;;;;;;23.40;6.00;;;;;;;;;;5385208;26;20007;-58
2024/04/10 07:08:31;;;;;;;20.48;6.50;;;;;;;;;;5388105;26;20012;-59
2024/04/10 07:10:56;;;;;;;21.33;6.70;;;;;;;;;;5385517;26;20412;-59
2024/04/10 07:13:23;;;;;;;22.13;4.97;;;;;;;;;;5385261;26;20329;-56
2024/04/10 07:15:56;;;;;;;19.60;4.80;;;;;;;;;;5383537;26;20065;-57
2024/04/10 07:18:21;;;;;;;23.58;4.55;;;;;;;;;;5387547;26;20004;-56
2024/04/10 07:20:56;;;;;;;16.42;4.43;;;;;;;;;;5420474;26;20007;-57
2024/04/10 07:23:21;;;;;;;19.05;4.50;;;;;;;;;;5418969;26;20045;-55
2024/04/10 07:25:46;;;;;;;15.45;4.30;;;;;;;;;;5412192;26;19999;-56
2024/04/10 07:28:11;;;;;;;19.08;4.55;;;;;;;;;;5384984;26;19992;-55
2024/04/10 07:30:37;;;;;;;19.50;4.63;;;;;;;;;;5409844;26;19999;-55
2024/04/10 07:33:03;;;;;;;19.45;4.13;;;;;;;;;;5384778;26;20003;-58
2024/04/10 07:35:28;;;;;;;20.52;4.90;;;;;;;;;;5387289;26;20019;-57
2024/04/10 07:37:54;;;;;;;12.45;3.50;;;;;;;;;;5414267;26;20466;-57
2024/04/10 07:40:19;;;;;;;18.63;3.80;;;;;;;;;;5420385;26;19996;-56
2024/04/10 07:42:44;;;;;;;20.38;4.05;;;;;;;;;;5419931;26;19995;-55
2024/04/10 07:45:09;;;;;;;14.85;4.20;;;;;;;;;;5420703;26;19999;-57
2024/04/10 07:47:34;;;;;;;19.25;4.88;;;;;;;;;;5420668;26;19991;-57
2024/04/10 07:50:00;;;;;;;20.20;4.40;;;;;;;;;;5398655;26;20004;-56
2024/04/10 07:52:25;;;;;;;12.80;3.53;;;;;;;;;;5397010;26;20036;-56
2024/04/10 07:54:51;;;;;;;23.17;5.28;;;;;;;;;;5420457;26;20002;-57
2024/04/10 07:57:17;;;;;;;15.65;4.40;;;;;;;;;;5420171;26;20004;-56
2024/04/10 07:59:43;;;;;;;23.77;4.63;;;;;;;;;;5418744;26;20011;-57
2024/04/10 08:02:08;;;;;;;20.80;4.75;;;;;;;;;;5416078;26;20003;-56
2024/04/10 08:04:33;;;;;;;22.17;5.57;;;;;;;;;;5419925;26;19991;-57
2024/04/10 08:06:58;;;;;;;15.55;4.28;;;;;;;;;;5418814;26;19992;-57
2024/04/10 08:09:23;;;;;;;16.83;3.92;;;;;;;;;;5419635;26;20296;-57
2024/04/10 08:11:49;;;;;;;17.48;3.83;;;;;;;;;;5406980;26;20302;-55
2024/04/10 08:14:15;;;;;;;19.38;5.55;;;;;;;;;;5388028;26;19992;-56
2024/04/10 08:16:40;;;;;;;19.10;4.32;;;;;;;;;;5419604;26;20416;-57
2024/04/10 08:19:06;;;;;;;23.52;3.95;;;;;;;;;;5419879;26;19991;-56
2024/04/10 08:21:35;;;;;;;18.05;3.88;;;;;;;;;;5398222;26;20000;-57
2024/04/10 08:24:00;;;;;;;19.20;4.20;;;;;;;;;;5419516;26;20011;-58
2024/04/10 08:26:25;;;;;;;16.58;3.90;;;;;;;;;;5419595;26;19991;-57
2024/04/10 08:28:52;;;;;;;19.65;5.03;;;;;;;;;;5419734;26;20007;-56
2024/04/10 08:31:24;;;;;;;17.30;4.40;;;;;;;;;;5417968;26;20000;-58
2024/04/10 08:33:49;;;;;;;16.98;4.07;;;;;;;;;;5384664;26;20000;-58
2024/04/10 08:36:16;;;;;;;17.15;3.97;;;;;;;;;;5384519;26;19996;-59
2024/04/10 08:38:42;;;;;;;15.88;3.53;;;;;;;;;;5384385;26;20000;-58
2024/04/10 08:41:14;;;;;;;15.73;4.18;;;;;;;;;;5384099;26;20417;-58
2024/04/10 08:43:43;;;;;;;17.13;4.43;;;;;;;;;;5387366;26;20070;-57
2024/04/10 08:46:09;;;;;;;21.98;4.50;;;;;;;;;;5419129;26;20006;-58
2024/04/10 08:48:35;;;;;;;16.30;4.40;;;;;;;;;;5406143;26;20004;-58
2024/04/10 08:51:02;;;;;;;20.60;4.55;;;;;;;;;;5383788;26;20008;-58
2024/04/10 08:53:28;;;;;;;19.73;3.95;;;;;;;;;;5384589;26;20286;-57
2024/04/10 08:55:53;;;;;;;14.80;3.72;;;;;;;;;;5394053;26;19999;-60
2024/04/10 08:58:19;;;;;;;19.08;4.50;;;;;;;;;;5423121;26;19992;-58
2024/04/10 09:00:45;;;;;;;15.90;4.50;;;;;;;;;;5422498;26;19992;-58
2024/04/10 09:03:14;;;;;;;12.48;3.60;;;;;;;;;;5421595;26;20011;-57
2024/04/10 09:05:39;;;;;;;21.70;4.55;;;;;;;;;;5420914;26;19995;-57
2024/04/10 09:08:05;;;;;;;17.08;4.50;;;;;;;;;;5386969;26;20074;-57
2024/04/10 09:10:30;;;;;;;19.73;4.10;;;;;;;;;;5387091;26;20008;-57
2024/04/10 09:13:05;;;;;;;17.27;4.22;;;;;;;;;;5387102;26;20035;-57
2024/04/10 09:15:31;;;;;;;20.23;4.20;;;;;;;;;;5385230;26;20010;-57
2024/04/10 09:17:56;;;;;;;16.00;3.90;;;;;;;;;;5410176;26;19995;-57
2024/04/10 09:20:22;;;;;;;14.98;4.18;;;;;;;;;;5417504;26;20008;-57
2024/04/10 09:23:04;;;;;;;16.92;4.45;;;;;;;;;;5415134;26;20010;-57
2024/04/10 09:25:29;;;;;;;14.18;3.25;;;;;;;;;;5386605;26;20004;-56
2024/04/10 09:27:58;;;;;;;16.90;3.20;;;;;;;;;;5405362;26;20489;-58
2024/04/10 09:30:24;;;;;;;12.27;2.83;;;;;;;;;;5392285;26;20016;-56
2024/04/10 09:32:49;;;;;;;15.05;3.30;;;;;;;;;;5386922;26;20397;-54
2024/04/10 09:35:14;;;;;;;11.52;2.50;;;;;;;;;;5386346;26;19992;-56
2024/04/10 09:37:41;;;;;;;12.73;2.92;;;;;;;;;;5386757;26;19992;-57
2024/04/10 09:40:06;;;;;;;9.50;2.55;;;;;;;;;;5416747;26;20065;-55
2024/04/10 09:42:32;;;;;;;14.48;3.15;;;;;;;;;;5422117;26;20436;-56
2024/04/10 09:45:11;;;;;;;15.25;3.15;;;;;;;;;;5403664;26;20482;-57
2024/04/10 09:47:38;;;;;;;15.35;3.55;;;;;;;;;;5386129;26;20043;-57
2024/04/10 09:50:07;;;;;;;10.73;2.45;;;;;;;;;;5415303;26;20000;-57
2024/04/10 09:52:32;;;;;;;13.30;3.15;;;;;;;;;;5422025;26;19995;-57
2024/04/10 09:54:57;;;;;;;10.25;2.92;;;;;;;;;;5422244;26;19992;-54
2024/04/10 09:57:23;;;;;;;14.93;3.35;;;;;;;;;;5422221;26;19996;-55
2024/04/10 09:59:49;;;;;;;12.25;3.03;;;;;;;;;;5398911;26;20424;-57
2024/04/10 10:02:18;;;;;;;16.05;3.40;;;;;;;;;;5385094;26;20019;-57
2024/04/10 10:04:43;;;;;;;15.80;3.83;;;;;;;;;;5385899;26;19996;-58
2024/04/10 10:07:10;;;;;;;12.88;3.55;;;;;;;;;;5386133;26;20003;-58
2024/04/10 10:09:35;;;;;;;10.68;2.85;;;;;;;;;;5404040;26;20000;-57
2024/04/10 10:12:01;;;;;;;12.23;2.70;;;;;;;;;;5418068;26;19992;-58
2024/04/10 10:14:26;;;;;;;12.77;2.90;;;;;;;;;;5386462;26;20405;-58
2024/04/10 10:16:51;;;;;;;9.80;2.35;;;;;;;;;;5386420;26;20012;-57
2024/04/10 10:19:25;;;;;;;10.98;2.75;;;;;;;;;;5386454;26;20015;-57
2024/04/10 10:21:58;;;;;;;9.57;2.58;;;;;;;;;;5386752;26;20077;-58
2024/04/10 10:24:23;;;;;;;12.95;2.88;;;;;;;;;;5386402;26;20000;-58
2024/04/10 10:26:56;;;;;;;11.35;2.65;;;;;;;;;;5385905;26;19992;-57
2024/04/10 10:29:22;;;;;;;9.32;2.55;;;;;;;;;;5386255;26;20000;-57
2024/04/10 10:31:47;;;;;;;9.07;2.60;;;;;;;;;;5386279;26;20070;-58
2024/04/10 10:34:16;;;;;;;12.13;2.70;;;;;;;;;;5416435;26;19995;-59
2024/04/10 10:36:41;;;;;;;10.38;2.50;;;;;;;;;;5421712;26;20416;-60
2024/04/10 10:39:14;;;;;;;12.63;2.67;;;;;;;;;;5421503;26;20010;-58
2024/04/10 10:41:40;;;;;;;11.73;3.65;;;;;;;;;;5393764;26;20012;-59
2024/04/10 10:44:05;;;;;;;13.07;3.33;;;;;;;;;;5395064;26;20003;-58
2024/04/10 10:46:34;;;;;;;11.27;2.65;;;;;;;;;;5384138;26;20000;-58
2024/04/10 10:48:59;;;;;;;12.32;2.47;;;;;;;;;;5386017;26;20007;-59
2024/04/10 10:51:24;;;;;;;9.73;2.75;;;;;;;;;;5386090;26;19992;-58
2024/04/10 10:53:50;;;;;;;11.13;2.83;;;;;;;;;;5384749;26;19996;-59
2024/04/10 10:56:26;;;;;;;9.25;2.30;;;;;;;;;;5385591;26;20413;-56
2024/04/10 10:58:54;;;;;;;9.55;2.63;;;;;;;;;;5385679;26;20006;-57
2024/04/10 11:01:20;;;;;;;9.20;2.67;;;;;;;;;;5385263;26;20094;-57
2024/04/10 11:03:47;;;;;;;8.38;2.08;;;;;;;;;;5400721;26;20016;-56
2024/04/10 11:06:12;;;;;;;8.68;2.33;;;;;;;;;;5419820;26;20004;-57
2024/04/10 11:08:38;;;;;;;10.43;2.47;;;;;;;;;;5409714;26;20015;-57
2024/04/10 11:11:04;;;;;;;10.30;2.53;;;;;;;;;;5385668;26;20404;-57
2024/04/10 11:13:29;;;;;;;14.23;3.03;;;;;;;;;;5385702;26;20406;-57
2024/04/10 11:15:57;;;;;;;10.45;2.40;;;;;;;;;;5396817;26;20003;-57
2024/04/10 11:18:23;;;;;;;13.95;2.70;;;;;;;;;;5421153;26;19999;-57
2024/04/10 11:20:49;;;;;;;9.55;2.42;;;;;;;;;;5387675;26;20005;-57
2024/04/10 11:23:15;;;;;;;9.13;2.15;;;;;;;;;;5385246;26;20010;-58
2024/04/10 11:25:40;;;;;;;9.10;2.80;;;;;;;;;;5385248;26;20318;-57
2024/04/10 11:28:07;;;;;;;14.13;2.63;;;;;;;;;;5385000;26;20042;-56
2024/04/10 11:30:32;;;;;;;9.52;2.60;;;;;;;;;;5410954;26;20011;-57
2024/04/10 11:32:57;;;;;;;9.40;2.33;;;;;;;;;;5420985;26;20065;-57
2024/04/10 11:35:23;;;;;;;7.57;2.38;;;;;;;;;;5421061;26;19999;-57
2024/04/10 11:37:52;;;;;;;11.13;2.80;;;;;;;;;;5391902;26;20004;-57
2024/04/10 11:40:19;;;;;;;11.07;2.70;;;;;;;;;;5385088;26;19996;-57
2024/04/10 11:42:44;;;;;;;8.10;2.30;;;;;;;;;;5415176;26;20008;-58
2024/04/10 11:45:09;;;;;;;11.25;2.72;;;;;;;;;;5420408;26;20068;-57
2024/04/10 11:47:35;;;;;;;8.52;2.50;;;;;;;;;;5420486;26;20000;-58
2024/04/10 11:50:00;;;;;;;12.77;2.92;;;;;;;;;;5420075;26;20011;-57
2024/04/10 11:52:26;;;;;;;11.23;2.70;;;;;;;;;;5419649;26;20018;-56
2024/04/10 11:54:51;;;;;;;10.45;3.03;;;;;;;;;;5384775;26;20011;-56
2024/04/10 11:57:16;;;;;;;8.40;2.80;;;;;;;;;;5384790;26;19995;-58
2024/04/10 11:59:41;;;;;;;11.38;2.92;;;;;;;;;;5384184;26;20004;-57
2024/04/10 12:02:07;;;;;;;10.35;2.70;;;;;;;;;;5388619;26;20007;-58
2024/04/10 12:04:32;;;;;;;12.95;2.85;;;;;;;;;;5420195;26;20037;-57
2024/04/10 12:06:57;;;;;;;11.93;2.20;;;;;;;;;;5419703;26;20294;-57
2024/04/10 12:09:25;;;;;;;7.00;2.42;;;;;;;;;;5419973;26;20312;-55
2024/04/10 12:11:50;;;;;;;12.07;2.63;;;;;;;;;;5413178;26;20074;-57
2024/04/10 12:14:15;;;;;;;9.20;2.28;;;;;;;;;;5385120;26;20008;-57
2024/04/10 12:16:40;;;;;;;9.25;2.42;;;;;;;;;;5384645;26;19992;-57
2024/04/10 12:19:06;;;;;;;9.23;2.55;;;;;;;;;;5384669;26;20063;-55
2024/04/10 12:21:32;;;;;;;10.18;2.72;;;;;;;;;;5384767;26;20042;-57
2024/04/10 12:23:57;;;;;;;7.30;2.17;;;;;;;;;;5388060;26;19996;-56
2024/04/10 12:26:23;;;;;;;9.45;2.75;;;;;;;;;;5419519;26;19995;-56
2024/04/10 12:28:48;;;;;;;8.55;2.47;;;;;;;;;;5413168;26;20014;-58
2024/04/10 12:31:13;;;;;;;8.73;2.63;;;;;;;;;;5421600;26;20041;-57
2024/04/10 12:33:38;;;;;;;7.88;2.08;;;;;;;;;;5423286;26;20400;-58
2024/04/10 12:38:49;;;;;;;10.95;2.90;;;;;;;;;;5388494;26;20072;-58
2024/04/10 12:41:14;;;;;;;9.68;2.42;;;;;;;;;;5387887;26;20270;-58
2024/04/10 12:43:42;;;;;;;11.20;2.45;;;;;;;;;;5387401;26;20062;-58
2024/04/10 12:46:07;;;;;;;9.38;2.53;;;;;;;;;;5391297;26;20004;-58
2024/04/10 12:48:33;;;;;;;9.70;2.42;;;;;;;;;;5423274;26;20415;-57
2024/04/10 12:50:58;;;;;;;11.00;3.10;;;;;;;;;;5423310;26;19992;-56
2024/04/10 12:53:23;;;;;;;8.48;2.60;;;;;;;;;;5423017;26;19999;-58
2024/04/10 12:55:53;;;;;;;8.10;2.42;;;;;;;;;;5418658;26;19996;-57
2024/04/10 12:58:18;;;;;;;7.00;2.25;;;;;;;;;;5393906;26;20011;-58
2024/04/10 13:00:44;;;;;;;8.85;2.30;;;;;;;;;;5386543;26;19992;-57
2024/04/10 13:03:10;;;;;;;8.48;2.90;;;;;;;;;;5385471;26;20006;-58
2024/04/10 13:05:36;;;;;;;8.93;2.63;;;;;;;;;;5387290;26;20340;-59
2024/04/10 13:08:01;;;;;;;7.40;2.55;;;;;;;;;;5422485;26;20015;-58
2024/04/10 13:10:26;;;;;;;6.25;2.30;;;;;;;;;;5422984;26;20002;-58
2024/04/10 13:12:51;;;;;;;7.25;2.63;;;;;;;;;;5423000;26;19992;-58
2024/04/10 13:15:17;;;;;;;11.48;2.45;;;;;;;;;;5420981;26;20004;-58
2024/04/10 13:17:42;;;;;;;11.98;2.50;;;;;;;;;;5387075;26;20007;-58
2024/04/10 13:20:07;;;;;;;8.38;2.40;;;;;;;;;;5409466;26;19995;-58
2024/04/10 13:22:32;;;;;;;10.85;2.88;;;;;;;;;;5422437;26;20002;-58
2024/04/10 13:24:58;;;;;;;9.45;2.20;;;;;;;;;;5401179;26;20011;-58
2024/04/10 13:27:23;;;;;;;9.60;2.20;;;;;;;;;;5387118;26;19993;-58
2024/04/10 13:29:48;;;;;;;7.35;1.95;;;;;;;;;;5403083;26;19996;-57
2024/04/10 13:32:14;;;;;;;6.28;1.73;;;;;;;;;;5422740;26;20006;-58
2024/04/10 13:34:39;;;;;;;7.63;2.30;;;;;;;;;;5415193;26;20012;-57
2024/04/10 13:37:08;;;;;;;5.85;2.20;;;;;;;;;;5393249;26;20004;-56
2024/04/10 13:39:33;;;;;;;8.15;2.28;;;;;;;;;;5421223;26;19995;-57
2024/04/10 13:41:58;;;;;;;9.23;2.85;;;;;;;;;;5422142;26;20292;-57
2024/04/10 13:44:23;;;;;;;7.43;2.00;;;;;;;;;;5422373;26;20420;-56
2024/04/10 13:46:49;;;;;;;8.00;2.38;;;;;;;;;;5415574;26;20011;-57
2024/04/10 13:49:14;;;;;;;6.30;2.08;;;;;;;;;;5386957;26;20390;-58
2024/04/10 13:51:39;;;;;;;7.03;2.60;;;;;;;;;;5387563;26;20278;-58
2024/04/10 13:54:04;;;;;;;8.35;2.50;;;;;;;;;;5386538;26;20008;-56
2024/04/10 13:56:30;;;;;;;11.38;2.47;;;;;;;;;;5392985;26;20011;-57
2024/04/10 13:58:55;;;;;;;8.68;2.35;;;;;;;;;;5386819;26;20309;-58
2024/04/10 14:01:21;;;;;;;9.63;2.70;;;;;;;;;;5385658;26;19988;-58
2024/04/10 14:03:48;;;;;;;7.35;2.10;;;;;;;;;;5386628;26;20058;-57
2024/04/10 14:06:13;;;;;;;9.57;2.40;;;;;;;;;;5386336;26;20008;-58
2024/04/10 14:08:40;;;;;;;7.15;2.30;;;;;;;;;;5386950;26;19997;-58
2024/04/10 14:11:06;;;;;;;9.57;2.20;;;;;;;;;;5386468;26;20425;-57
2024/04/10 14:13:34;;;;;;;6.83;2.40;;;;;;;;;;5385861;26;20003;-59
2024/04/10 14:16:00;;;;;;;8.85;2.35;;;;;;;;;;5386167;26;20910;-60
2024/04/10 14:18:26;;;;;;;7.82;2.10;;;;;;;;;;5386138;26;20001;-60
2024/04/10 14:21:17;;;;;;;7.35;2.03;;;;;;;;;;5385692;26;20015;-60
2024/04/10 14:23:43;;;;;;;7.03;2.17;;;;;;;;;;5408778;26;19995;-60
2024/04/10 14:26:12;;;;;;;6.65;2.38;;;;;;;;;;5421525;26;19999;-60
2024/04/10 14:28:37;;;;;;;5.90;2.00;;;;;;;;;;5421124;26;20007;-58
2024/04/10 14:31:06;;;;;;;9.90;3.57;;;;;;;;;;5421003;26;20061;-60
2024/04/10 14:33:32;;;;;;;6.03;1.80;;;;;;;;;;5421133;26;20237;-59